createdAt,value
2018-12-07T00:01:33.024Z,3.63
2018-12-07T00:04:01.958Z,5.57
2018-12-07T00:06:30.914Z,5.97
2018-12-07T00:08:59.764Z,4.00
2018-12-07T00:11:28.706Z,4.30
2018-12-07T00:13:57.622Z,4.47
2018-12-07T00:16:26.480Z,4.97
2018-12-07T00:18:55.565Z,6.40
2018-12-07T00:21:24.478Z,6.23
2018-12-07T00:23:54.123Z,5.40
2018-12-07T00:26:23.340Z,6.13
2018-12-07T00:28:53.062Z,6.03
2018-12-07T00:31:21.926Z,4.23
2018-12-07T00:33:50.791Z,4.60
2018-12-07T00:36:19.720Z,2.80
2018-12-07T00:38:48.582Z,3.53
2018-12-07T00:41:17.437Z,3.40
2018-12-07T00:43:46.343Z,2.97
2018-12-07T00:46:15.998Z,3.50
2018-12-07T00:48:44.885Z,3.73
2018-12-07T00:51:13.794Z,2.93
2018-12-07T00:53:42.646Z,3.30
2018-12-07T00:56:11.501Z,3.53
2018-12-07T00:58:41.253Z,3.30
2018-12-07T01:01:10.099Z,3.90
2018-12-07T01:03:38.962Z,3.50
2018-12-07T01:06:07.872Z,2.90
2018-12-07T01:08:36.719Z,3.27
2018-12-07T01:11:05.670Z,2.90
2018-12-07T01:13:34.732Z,2.17
2018-12-07T01:16:03.645Z,1.60
2018-12-07T01:18:32.490Z,1.23
2018-12-07T01:21:01.404Z,1.00
2018-12-07T01:23:30.270Z,1.40
2018-12-07T01:25:59.155Z,1.50
2018-12-07T01:28:28.062Z,1.50
2018-12-07T01:30:56.905Z,1.53
2018-12-07T01:33:25.754Z,2.40
2018-12-07T01:35:54.674Z,2.40
2018-12-07T01:38:24.466Z,2.33
2018-12-07T01:40:53.354Z,2.97
2018-12-07T01:43:22.295Z,2.03
2018-12-07T01:45:51.143Z,3.10
2018-12-07T01:48:20.002Z,4.57
2018-12-07T01:50:49.169Z,6.13
2018-12-07T01:53:18.058Z,19.83
2018-12-07T01:55:46.902Z,23.17
2018-12-07T01:58:15.834Z,22.20
2018-12-07T02:00:44.726Z,14.77
2018-12-07T02:03:13.574Z,17.27
2018-12-07T02:05:42.537Z,9.37
2018-12-07T02:08:11.516Z,6.60
2018-12-07T02:10:40.370Z,11.90
2018-12-07T02:13:09.293Z,9.37
2018-12-07T02:15:38.213Z,9.60
2018-12-07T02:18:07.075Z,5.23
2018-12-07T02:20:35.994Z,5.33
2018-12-07T02:23:04.909Z,4.90
2018-12-07T02:25:33.755Z,6.20
2018-12-07T02:28:02.695Z,7.17
2018-12-07T02:30:31.946Z,9.80
2018-12-07T02:33:00.806Z,10.47
2018-12-07T02:35:29.738Z,5.37
2018-12-07T02:37:59.643Z,7.43
2018-12-07T02:40:28.495Z,9.40
2018-12-07T02:42:58.458Z,12.60
2018-12-07T02:45:27.316Z,20.80
2018-12-07T02:47:56.165Z,15.90
2018-12-07T02:50:25.089Z,14.60
2018-12-07T02:52:53.961Z,14.40
2018-12-07T02:55:22.831Z,18.17
2018-12-07T02:57:51.766Z,16.40
2018-12-07T03:00:20.876Z,42.07
2018-12-07T03:02:49.732Z,42.23
2018-12-07T03:05:18.966Z,12.67
2018-12-07T03:07:47.816Z,33.27
2018-12-07T03:10:16.686Z,16.33
2018-12-07T03:12:46.543Z,41.20
2018-12-07T03:18:01.726Z,36.23
2018-12-07T03:20:30.591Z,16.43
2018-12-07T03:22:59.475Z,23.73
2018-12-07T03:25:28.447Z,82.20
2018-12-07T03:27:57.376Z,78.33
2018-12-07T03:30:26.274Z,28.53
2018-12-07T03:32:55.239Z,34.23
2018-12-07T03:35:24.151Z,65.60
2018-12-07T03:37:53.030Z,48.57
2018-12-07T03:40:22.018Z,23.10
2018-12-07T03:42:50.902Z,29.57
2018-12-07T03:45:19.795Z,33.77
2018-12-07T03:47:49.838Z,78.60
2018-12-07T03:50:18.750Z,32.20
2018-12-07T03:52:47.640Z,26.93
2018-12-07T03:55:16.594Z,22.33
2018-12-07T04:05:01.864Z,15.97
2018-12-07T04:07:30.762Z,13.33
2018-12-07T04:09:59.654Z,26.13
2018-12-07T04:12:28.622Z,19.70
2018-12-07T04:14:58.676Z,15.37
2018-12-07T04:17:27.551Z,16.53
2018-12-07T04:19:56.806Z,17.20
2018-12-07T04:22:26.464Z,16.13
2018-12-07T04:24:55.347Z,19.07
2018-12-07T04:27:24.375Z,15.63
2018-12-07T04:29:57.663Z,13.57
2018-12-07T04:32:27.938Z,15.43
2018-12-07T04:34:57.287Z,12.03
2018-12-07T04:37:26.948Z,9.13
2018-12-07T04:39:56.833Z,12.60
2018-12-07T04:42:25.735Z,12.73
2018-12-07T04:44:54.727Z,9.37
2018-12-07T04:47:23.615Z,14.33
2018-12-07T04:49:52.503Z,15.07
2018-12-07T04:52:21.500Z,12.93
2018-12-07T04:54:50.390Z,15.07
2018-12-07T04:57:19.299Z,13.27
2018-12-07T04:59:48.272Z,15.60
2018-12-07T05:02:17.369Z,14.90
2018-12-07T05:04:46.391Z,15.37
2018-12-07T05:07:15.386Z,16.13
2018-12-07T05:09:44.293Z,13.80
2018-12-07T05:12:13.191Z,15.83
2018-12-07T05:14:42.297Z,15.73
2018-12-07T05:17:11.245Z,13.97
2018-12-07T05:19:40.148Z,13.87
2018-12-07T05:22:10.296Z,13.17
2018-12-07T05:24:39.183Z,13.13
2018-12-07T05:27:08.059Z,13.90
2018-12-07T05:29:37.030Z,15.67
2018-12-07T05:32:05.943Z,14.03
2018-12-07T05:34:34.840Z,14.77
2018-12-07T05:37:03.798Z,14.17
2018-12-07T05:39:32.714Z,12.67
2018-12-07T05:42:01.658Z,14.90
2018-12-07T05:44:30.612Z,11.00
2018-12-07T05:46:59.480Z,15.00
2018-12-07T05:49:28.394Z,14.23
2018-12-07T05:51:57.350Z,14.53
2018-12-07T05:54:27.003Z,16.33
2018-12-07T05:56:55.902Z,16.43
2018-12-07T05:59:24.850Z,15.77
2018-12-07T06:01:53.735Z,16.17
2018-12-07T06:04:22.645Z,16.10
2018-12-07T06:06:52.397Z,17.63
2018-12-07T06:09:21.293Z,15.47
2018-12-07T06:11:50.187Z,31.97
2018-12-07T06:14:19.326Z,44.27
2018-12-07T06:16:48.233Z,20.43
2018-12-07T06:19:17.118Z,22.33
2018-12-07T06:21:46.083Z,24.97
2018-12-07T06:24:15.061Z,24.90
2018-12-07T06:26:43.950Z,19.17
2018-12-07T06:29:12.902Z,15.20
2018-12-07T06:31:41.998Z,15.87
2018-12-07T06:34:10.887Z,17.90
2018-12-07T06:36:39.840Z,17.70
2018-12-07T06:39:09.726Z,16.40
2018-12-07T06:41:38.666Z,15.20
2018-12-07T06:44:07.659Z,18.67
2018-12-07T06:46:36.543Z,19.53
2018-12-07T06:49:09.264Z,18.57
2018-12-07T06:51:38.178Z,20.20
2018-12-07T06:54:07.076Z,23.00
2018-12-07T06:56:36.030Z,18.57
2018-12-07T06:59:06.082Z,19.20
2018-12-07T07:01:35.091Z,14.07
2018-12-07T07:04:04.066Z,15.37
2018-12-07T07:06:32.990Z,14.23
2018-12-07T07:09:14.772Z,14.27
2018-12-07T07:11:43.666Z,20.03
2018-12-07T07:14:12.590Z,18.83
2018-12-07T07:16:41.570Z,26.17
2018-12-07T07:19:10.500Z,51.20
2018-12-07T07:21:39.374Z,15.93
2018-12-07T07:24:08.334Z,20.73
2018-12-07T07:26:37.290Z,17.30
2018-12-07T07:29:06.178Z,16.67
2018-12-07T07:31:35.151Z,15.13
2018-12-07T07:34:04.103Z,14.73
2018-12-07T07:36:33.069Z,15.70
2018-12-07T07:39:02.031Z,13.70
2018-12-07T07:41:31.503Z,10.03
2018-12-07T07:44:00.431Z,13.53
2018-12-07T07:46:29.378Z,15.77
2018-12-07T07:48:59.471Z,12.03
2018-12-07T07:51:28.416Z,12.67
2018-12-07T07:53:57.367Z,13.90
2018-12-07T07:56:26.263Z,14.30
2018-12-07T07:58:56.021Z,14.00
2018-12-07T08:01:25.937Z,15.07
2018-12-07T08:03:54.943Z,14.57
2018-12-07T08:06:23.862Z,13.10
2018-12-07T08:08:52.868Z,11.57
2018-12-07T08:11:22.339Z,15.47
2018-12-07T08:13:51.235Z,14.30
2018-12-07T08:16:20.194Z,14.63
2018-12-07T08:18:50.164Z,11.53
2018-12-07T08:21:19.157Z,14.60
2018-12-07T08:23:48.125Z,13.40
2018-12-07T08:26:17.024Z,14.77
2018-12-07T08:28:46.792Z,13.13
2018-12-07T08:31:16.846Z,12.10
2018-12-07T08:33:45.755Z,13.90
2018-12-07T08:36:14.646Z,14.17
2018-12-07T08:38:43.590Z,14.50
2018-12-07T08:41:12.658Z,13.90
2018-12-07T08:43:41.561Z,14.40
2018-12-07T08:46:10.525Z,14.20
2018-12-07T08:48:39.410Z,13.07
2018-12-07T08:51:08.347Z,12.90
2018-12-07T08:53:37.320Z,12.40
2018-12-07T08:56:06.246Z,13.97
2018-12-07T08:58:36.161Z,13.47
2018-12-07T09:01:05.222Z,13.23
2018-12-07T09:03:34.155Z,14.03
2018-12-07T09:06:03.103Z,13.73
2018-12-07T09:08:32.164Z,11.63
2018-12-07T09:11:01.234Z,12.00
2018-12-07T09:13:30.122Z,11.80
2018-12-07T09:16:00.666Z,13.32
2018-12-07T09:18:29.570Z,12.68
2018-12-07T09:20:58.505Z,10.53
2018-12-07T09:23:27.454Z,12.60
2018-12-07T09:25:56.395Z,10.38
2018-12-07T09:28:25.303Z,10.68
2018-12-07T09:30:54.342Z,10.75
2018-12-07T09:33:23.316Z,12.37
2018-12-07T09:35:52.224Z,11.12
2018-12-07T09:38:21.175Z,10.55
2018-12-07T09:40:50.074Z,11.08
2018-12-07T09:43:18.960Z,10.82
2018-12-07T09:45:47.966Z,9.55
2018-12-07T09:48:16.859Z,9.75
2018-12-07T09:50:45.739Z,11.60
2018-12-07T09:53:15.896Z,10.15
2018-12-07T09:55:44.832Z,11.43
2018-12-07T09:58:13.991Z,11.53
2018-12-07T10:00:42.951Z,9.38
2018-12-07T10:03:11.835Z,9.83
2018-12-07T10:05:40.740Z,9.00
2018-12-07T10:08:09.699Z,9.20
2018-12-07T10:10:38.623Z,10.10
2018-12-07T10:13:08.145Z,9.95
2018-12-07T10:15:37.434Z,7.70
2018-12-07T10:18:06.326Z,8.70
2018-12-07T10:20:35.237Z,8.95
2018-12-07T10:23:04.198Z,9.68
2018-12-07T10:25:33.090Z,9.40
2018-12-07T10:28:02.280Z,9.65
2018-12-07T10:30:31.370Z,10.15
2018-12-07T10:33:00.402Z,9.87
2018-12-07T10:35:29.582Z,10.50
2018-12-07T10:37:58.636Z,9.37
2018-12-07T10:40:27.574Z,10.40
2018-12-07T10:42:56.538Z,7.12
2018-12-07T10:45:25.528Z,6.80
2018-12-07T10:47:54.502Z,7.00
2018-12-07T10:50:24.386Z,6.40
2018-12-07T10:52:53.351Z,6.62
2018-12-07T10:55:22.299Z,7.10
2018-12-07T10:57:51.202Z,5.22
2018-12-07T11:00:29.434Z,5.65
2018-12-07T11:03:04.976Z,4.50
2018-12-07T11:05:40.507Z,5.75
2018-12-07T11:08:17.850Z,5.45
2018-12-07T11:10:52.586Z,4.95
2018-12-07T11:13:30.113Z,5.28
2018-12-07T11:16:08.547Z,4.58
2018-12-07T11:18:45.907Z,5.78
2018-12-07T11:21:23.517Z,5.40
2018-12-07T11:26:02.526Z,6.25
2018-12-07T11:28:38.578Z,4.60
2018-12-07T11:31:14.018Z,3.98
2018-12-07T11:33:50.670Z,4.62
2018-12-07T11:36:19.603Z,5.20
2018-12-07T11:38:48.511Z,4.45
2018-12-07T11:41:17.503Z,5.78
2018-12-07T11:43:46.443Z,5.45
2018-12-07T11:46:15.346Z,5.72
2018-12-07T11:48:44.335Z,5.05
2018-12-07T11:51:13.410Z,5.78
2018-12-07T11:53:42.507Z,6.80
2018-12-07T11:56:11.520Z,5.45
2018-12-07T11:58:40.479Z,5.40
2018-12-07T12:01:09.424Z,6.22
2018-12-07T12:03:38.430Z,5.75
2018-12-07T12:06:07.362Z,5.75
2018-12-07T12:08:36.300Z,5.58
2018-12-07T12:11:05.267Z,5.65
2018-12-07T12:13:34.210Z,6.30
2018-12-07T12:16:03.143Z,6.60
2018-12-07T12:18:32.147Z,5.50
2018-12-07T12:21:01.152Z,6.67
2018-12-07T12:23:30.059Z,5.80
2018-12-07T12:25:59.015Z,5.40
2018-12-07T12:28:27.934Z,5.17
2018-12-07T12:30:56.852Z,4.30
2018-12-07T12:33:25.959Z,4.95
2018-12-07T12:35:54.923Z,4.73
2018-12-07T12:38:23.832Z,5.33
2018-12-07T12:40:52.795Z,5.60
2018-12-07T12:43:21.710Z,4.83
2018-12-07T12:45:50.730Z,5.27
2018-12-07T12:48:19.730Z,6.57
2018-12-07T12:50:48.731Z,5.00
2018-12-07T12:53:17.679Z,4.43
2018-12-07T12:55:46.678Z,5.90
2018-12-07T12:58:15.727Z,5.60
2018-12-07T13:00:44.639Z,6.08
2018-12-07T13:03:14.568Z,5.58
2018-12-07T13:05:43.787Z,5.15
2018-12-07T13:08:12.844Z,5.60
2018-12-07T13:10:41.857Z,5.90
2018-12-07T13:13:10.751Z,6.03
2018-12-07T13:15:39.659Z,5.70
2018-12-07T13:18:08.939Z,5.33
2018-12-07T13:20:37.877Z,5.00
2018-12-07T13:23:06.798Z,5.85
2018-12-07T13:25:35.853Z,4.92
2018-12-07T13:28:04.959Z,5.80
2018-12-07T13:30:34.315Z,5.78
2018-12-07T13:33:03.399Z,6.28
2018-12-07T13:35:32.288Z,5.85
2018-12-07T13:38:01.230Z,6.40
2018-12-07T13:40:30.300Z,5.90
2018-12-07T13:42:59.301Z,5.30
2018-12-07T13:45:28.537Z,6.03
2018-12-07T13:47:57.795Z,5.85
2018-12-07T13:50:35.245Z,5.87
2018-12-07T13:53:04.239Z,6.47
2018-12-07T13:55:33.144Z,6.20
2018-12-07T13:58:02.113Z,6.17
2018-12-07T14:00:31.227Z,5.93
2018-12-07T14:03:00.441Z,6.97
2018-12-07T14:05:32.374Z,7.73
2018-12-07T14:08:00.386Z,6.50
2018-12-07T14:10:29.310Z,5.80
2018-12-07T14:12:58.225Z,5.43
2018-12-07T14:15:27.283Z,7.27
2018-12-07T14:17:56.210Z,6.30
2018-12-07T14:20:26.358Z,6.37
2018-12-07T14:22:55.583Z,6.50
2018-12-07T14:25:24.593Z,7.13
2018-12-07T14:27:53.610Z,7.17
2018-12-07T14:30:22.849Z,6.50
2018-12-07T14:32:51.775Z,7.37
2018-12-07T14:35:20.724Z,7.07
2018-12-07T14:37:49.763Z,5.80
2018-12-07T14:40:18.736Z,5.67
2018-12-07T14:42:47.769Z,5.57
2018-12-07T14:45:16.858Z,6.40
2018-12-07T14:47:45.830Z,6.23
2018-12-07T14:50:15.834Z,5.27
2018-12-07T14:52:45.194Z,5.40
2018-12-07T14:55:15.589Z,5.50
2018-12-07T14:57:44.632Z,5.37
2018-12-07T15:00:13.699Z,6.33
2018-12-07T15:02:42.667Z,5.93
2018-12-07T15:05:11.645Z,5.47
2018-12-07T15:07:40.514Z,5.63
2018-12-07T15:10:09.541Z,5.97
2018-12-07T15:12:38.558Z,5.70
2018-12-07T15:15:07.537Z,5.97
2018-12-07T15:17:36.550Z,6.13
2018-12-07T15:20:06.259Z,5.63
2018-12-07T15:22:35.227Z,5.93
2018-12-07T15:25:04.555Z,5.67
2018-12-07T15:27:33.733Z,5.00
2018-12-07T15:30:02.835Z,5.00
2018-12-07T15:32:31.798Z,5.70
2018-12-07T15:35:00.907Z,5.77
2018-12-07T15:37:29.840Z,5.80
2018-12-07T15:39:58.900Z,5.53
2018-12-07T15:42:28.113Z,5.53
2018-12-07T15:44:57.110Z,5.90
2018-12-07T15:47:26.316Z,6.20
2018-12-07T15:49:55.449Z,6.33
2018-12-07T15:52:24.504Z,6.20
2018-12-07T15:54:53.582Z,6.47
2018-12-07T15:57:22.569Z,8.33
2018-12-07T15:59:51.704Z,6.30
2018-12-07T16:02:20.814Z,8.43
2018-12-07T16:04:50.026Z,7.40
2018-12-07T16:07:19.110Z,7.80
2018-12-07T16:09:48.042Z,6.03
2018-12-07T16:12:17.126Z,6.57
2018-12-07T16:14:46.484Z,8.00
2018-12-07T16:17:15.391Z,8.20
2018-12-07T16:19:44.327Z,7.57
2018-12-07T16:22:13.327Z,7.60
2018-12-07T16:24:42.241Z,6.93
2018-12-07T16:27:11.258Z,8.00
2018-12-07T16:29:41.408Z,7.93
2018-12-07T16:32:10.535Z,6.90
2018-12-07T16:34:39.590Z,7.10
2018-12-07T16:37:08.677Z,7.77
2018-12-07T16:39:37.745Z,7.50
2018-12-07T16:42:06.714Z,7.67
2018-12-07T16:44:36.005Z,8.23
2018-12-07T16:47:04.999Z,7.13
2018-12-07T16:49:34.391Z,7.70
2018-12-07T16:52:03.474Z,8.13
2018-12-07T16:54:32.553Z,8.37
2018-12-07T16:57:01.596Z,7.43
2018-12-07T16:59:30.657Z,8.93
2018-12-07T17:01:59.781Z,10.50
2018-12-07T17:04:28.794Z,10.50
2018-12-07T17:06:57.972Z,9.43
2018-12-07T17:09:26.913Z,9.77
2018-12-07T17:11:55.975Z,8.53
2018-12-07T17:14:25.069Z,9.53
2018-12-07T17:16:54.275Z,9.90
2018-12-07T17:19:23.403Z,9.03
2018-12-07T17:21:52.377Z,9.10
2018-12-07T17:24:21.253Z,8.43
2018-12-07T17:26:50.955Z,9.67
2018-12-07T17:29:20.235Z,10.13
2018-12-07T17:31:49.461Z,8.80
2018-12-07T17:34:18.640Z,11.23
2018-12-07T17:36:47.662Z,9.40
2018-12-07T17:39:16.534Z,9.37
2018-12-07T17:41:45.689Z,10.13
2018-12-07T17:44:15.602Z,10.87
2018-12-07T17:46:45.165Z,11.00
2018-12-07T17:49:26.355Z,11.37
2018-12-07T17:51:55.425Z,10.20
2018-12-07T17:54:24.540Z,10.60
2018-12-07T17:56:53.694Z,10.53
2018-12-07T17:59:22.870Z,11.00
2018-12-07T18:01:51.795Z,10.37
2018-12-07T18:04:20.707Z,12.47
2018-12-07T18:06:49.714Z,12.17
2018-12-07T18:09:18.780Z,11.70
2018-12-07T18:11:47.848Z,12.50
2018-12-07T18:14:17.118Z,11.77
2018-12-07T18:16:46.223Z,10.90
2018-12-07T18:19:15.308Z,11.27
2018-12-07T18:21:44.397Z,11.17
2018-12-07T18:24:13.409Z,12.27
2018-12-07T18:26:42.415Z,11.00
2018-12-07T18:29:11.382Z,10.17
2018-12-07T18:31:40.360Z,11.37
2018-12-07T18:34:09.589Z,11.70
2018-12-07T18:36:38.745Z,11.67
2018-12-07T18:39:08.458Z,11.93
2018-12-07T18:41:37.461Z,12.03
2018-12-07T18:44:06.486Z,12.47
2018-12-07T18:46:35.349Z,12.30
2018-12-07T18:49:04.291Z,12.33
2018-12-07T18:51:33.328Z,13.27
2018-12-07T18:54:02.361Z,12.00
2018-12-07T18:56:31.305Z,11.57
2018-12-07T18:59:00.628Z,12.87
2018-12-07T19:01:29.837Z,12.47
2018-12-07T19:03:58.780Z,12.33
2018-12-07T19:06:27.815Z,13.40
2018-12-07T19:08:56.794Z,13.40
2018-12-07T19:11:25.904Z,11.80
2018-12-07T19:13:54.904Z,14.00
2018-12-07T19:16:24.101Z,10.60
2018-12-07T19:18:53.193Z,12.80
2018-12-07T19:21:22.458Z,12.30
2018-12-07T19:23:51.479Z,12.97
2018-12-07T19:26:20.574Z,12.73
2018-12-07T19:28:49.619Z,12.57
2018-12-07T19:31:18.587Z,12.37
2018-12-07T19:33:48.637Z,11.33
2018-12-07T19:36:17.650Z,12.03
2018-12-07T19:38:47.171Z,13.27
2018-12-07T19:41:16.130Z,13.70
2018-12-07T19:43:45.369Z,13.57
2018-12-07T19:46:15.457Z,14.07
2018-12-07T19:48:44.565Z,13.50
2018-12-07T19:51:13.645Z,13.67
2018-12-07T19:53:42.718Z,14.97
2018-12-07T19:56:11.699Z,12.13
2018-12-07T19:58:40.663Z,15.90
2018-12-07T20:01:09.745Z,15.97
2018-12-07T20:03:39.068Z,16.10
2018-12-07T20:06:10.009Z,16.67
2018-12-07T20:08:39.156Z,17.03
2018-12-07T20:11:08.118Z,17.10
2018-12-07T20:13:37.108Z,17.33
2018-12-07T20:16:06.094Z,14.57
2018-12-07T20:18:35.199Z,15.50
2018-12-07T20:21:04.261Z,14.10
2018-12-07T20:23:33.166Z,16.00
2018-12-07T20:26:02.094Z,17.73
2018-12-07T20:28:31.219Z,15.83
2018-12-07T20:31:01.105Z,19.00
2018-12-07T20:33:30.269Z,16.17
2018-12-07T20:35:59.576Z,15.60
2018-12-07T20:38:28.536Z,14.77
2018-12-07T20:40:57.721Z,15.13
2018-12-07T20:43:26.771Z,15.30
2018-12-07T20:45:55.973Z,15.43
2018-12-07T20:48:24.904Z,16.63
2018-12-07T20:50:54.193Z,15.67
2018-12-07T20:53:23.205Z,15.77
2018-12-07T20:55:52.504Z,17.20
2018-12-07T20:58:21.687Z,20.00
2018-12-07T21:00:59.059Z,20.53
2018-12-07T21:03:45.648Z,38.00
2018-12-07T21:06:28.370Z,21.73
2018-12-07T21:09:10.009Z,18.10
2018-12-07T21:11:42.106Z,19.60
2018-12-07T21:14:22.990Z,19.33
2018-12-07T21:17:03.097Z,20.70
2018-12-07T21:19:32.385Z,20.50
2018-12-07T21:22:01.408Z,17.93
2018-12-07T21:24:30.780Z,20.33
2018-12-07T21:27:00.001Z,22.27
2018-12-07T21:29:29.195Z,22.13
2018-12-07T21:31:59.101Z,29.93
2018-12-07T21:34:36.500Z,28.43
2018-12-07T21:37:05.696Z,71.47
2018-12-07T21:39:41.707Z,57.20
2018-12-07T21:42:10.681Z,50.17
2018-12-07T21:44:39.693Z,115.17
2018-12-07T21:47:08.967Z,112.10
2018-12-07T21:49:47.808Z,66.80
2018-12-07T21:52:23.998Z,89.87
2018-12-07T21:54:53.130Z,89.03
2018-12-07T21:57:22.447Z,80.00
2018-12-07T21:59:51.775Z,83.97
2018-12-07T22:02:20.908Z,105.40
2018-12-07T22:04:50.057Z,65.20
2018-12-07T22:07:19.485Z,67.97
2018-12-07T22:09:49.061Z,54.10
2018-12-07T22:12:18.015Z,52.73
2018-12-07T22:14:47.067Z,39.67
2018-12-07T22:17:15.957Z,48.40
2018-12-07T22:19:44.844Z,76.40
2018-12-07T22:22:14.498Z,58.43
2018-12-07T22:24:43.362Z,35.40
2018-12-07T22:27:12.355Z,67.37
2018-12-07T22:29:41.517Z,41.97
2018-12-07T22:32:10.616Z,33.43
2018-12-07T22:34:39.663Z,29.33
2018-12-07T22:37:08.835Z,31.27
2018-12-07T22:39:38.064Z,39.33
2018-12-07T22:42:07.310Z,29.17
2018-12-07T22:44:36.383Z,30.83
2018-12-07T22:47:05.293Z,28.83
2018-12-07T22:49:34.192Z,27.03
2018-12-07T22:52:03.138Z,24.47
2018-12-07T22:54:31.991Z,24.50
2018-12-07T22:57:00.933Z,26.80
2018-12-07T22:59:29.877Z,26.17
2018-12-07T23:01:58.758Z,24.57
2018-12-07T23:04:27.663Z,26.10
2018-12-07T23:06:56.603Z,24.37
2018-12-07T23:09:25.482Z,24.60
2018-12-07T23:11:55.370Z,22.77
2018-12-07T23:14:24.302Z,21.73
2018-12-07T23:16:53.226Z,24.77
2018-12-07T23:19:22.111Z,21.73
2018-12-07T23:21:51.064Z,23.27
2018-12-07T23:24:19.948Z,21.60
2018-12-07T23:26:48.819Z,19.40
2018-12-07T23:29:20.682Z,18.53
2018-12-07T23:31:49.619Z,19.43
2018-12-07T23:34:18.497Z,17.10
2018-12-07T23:36:47.434Z,16.67
2018-12-07T23:39:16.331Z,16.23
2018-12-07T23:41:45.211Z,14.80
2018-12-07T23:44:14.155Z,15.43
2018-12-07T23:46:43.055Z,15.07
2018-12-07T23:49:11.915Z,14.73
2018-12-07T23:51:41.860Z,14.00
2018-12-07T23:54:10.791Z,14.20
2018-12-07T23:56:39.925Z,15.23
2018-12-07T23:59:09.190Z,15.17
